Time;durP1;ratioP1;P1;durP2;ratioP2;P2;SDS_P1;SDS_P2;PMS_P1;PMS_P2;Temp;Humidity;BMP_temperature;BMP_pressure;BME280_temperature;BME280_humidity;BME280_pressure;Samples;Min_cycle;Max_cycle;Signal;HPM_P1;HPM_P2
2022/05/01 00:00:23;;;;;;;7.45;4.85;;;;;;;;;;5052269;28;20036;-47
2022/05/01 00:02:48;;;;;;;7.10;5.00;;;;;;;;;;5052252;28;20025;-39
2022/05/01 00:05:14;;;;;;;8.73;5.57;;;;;;;;;;5052232;28;20112;-39
2022/05/01 00:07:39;;;;;;;9.73;5.55;;;;;;;;;;5052453;28;20467;-39
2022/05/01 00:10:06;;;;;;;7.20;4.60;;;;;;;;;;5052212;28;20108;-39
2022/05/01 00:12:32;;;;;;;5.75;3.42;;;;;;;;;;5052412;28;20025;-39
2022/05/01 00:14:57;;;;;;;5.15;4.15;;;;;;;;;;5052359;28;20032;-39
2022/05/01 00:17:23;;;;;;;5.10;4.13;;;;;;;;;;5052121;28;20021;-39
2022/05/01 00:19:48;;;;;;;9.40;5.00;;;;;;;;;;5052175;28;20036;-39
2022/05/01 00:22:14;;;;;;;11.18;5.75;;;;;;;;;;5052378;28;20033;-43
2022/05/01 00:24:39;;;;;;;10.10;5.70;;;;;;;;;;5052060;28;20021;-45
2022/05/01 00:27:05;;;;;;;7.47;5.88;;;;;;;;;;5051881;28;20036;-44
2022/05/01 00:29:31;;;;;;;6.93;5.70;;;;;;;;;;5052294;28;20098;-49
2022/05/01 00:31:56;;;;;;;6.85;4.13;;;;;;;;;;5051920;28;20029;-46
2022/05/01 00:37:06;;;;;;;6.82;4.90;;;;;;;;;;5052061;28;20079;-44
2022/05/01 00:39:31;;;;;;;8.95;5.60;;;;;;;;;;5051920;28;20408;-49
2022/05/01 00:41:56;;;;;;;10.32;7.05;;;;;;;;;;5051889;28;20495;-52
2022/05/01 00:44:22;;;;;;;9.48;6.03;;;;;;;;;;5051905;28;20052;-42
2022/05/01 00:46:50;;;;;;;8.88;6.28;;;;;;;;;;5051706;28;20032;-40
2022/05/01 00:49:17;;;;;;;13.75;6.50;;;;;;;;;;5051886;28;20052;-51
2022/05/01 00:51:50;;;;;;;9.63;5.30;;;;;;;;;;5033829;28;20219;-45
2022/05/01 00:54:17;;;;;;;11.02;6.00;;;;;;;;;;5052118;28;20041;-46
2022/05/01 00:56:48;;;;;;;9.13;6.55;;;;;;;;;;5051806;28;20104;-44
2022/05/01 00:59:14;;;;;;;8.30;6.00;;;;;;;;;;5051775;28;20491;-43
2022/05/01 01:01:45;;;;;;;11.00;6.70;;;;;;;;;;5051689;28;20021;-40
2022/05/01 01:04:11;;;;;;;7.57;6.03;;;;;;;;;;5051657;28;20021;-39
2022/05/01 01:06:37;;;;;;;9.75;6.88;;;;;;;;;;5054689;28;20033;-39
2022/05/01 01:09:04;;;;;;;9.52;6.65;;;;;;;;;;5055591;28;20017;-39
2022/05/01 01:11:29;;;;;;;9.52;6.95;;;;;;;;;;5055213;28;20029;-39
2022/05/01 01:13:55;;;;;;;9.45;6.95;;;;;;;;;;5055204;28;20032;-46
2022/05/01 01:16:21;;;;;;;7.32;6.20;;;;;;;;;;5055109;28;20475;-51
2022/05/01 01:18:47;;;;;;;8.93;6.72;;;;;;;;;;5055347;28;20056;-50
2022/05/01 01:21:12;;;;;;;9.38;7.25;;;;;;;;;;5055294;28;20477;-45
2022/05/01 01:23:39;;;;;;;7.82;6.22;;;;;;;;;;5055025;28;20366;-46
2022/05/01 01:26:06;;;;;;;8.43;6.68;;;;;;;;;;5055151;28;20025;-49
2022/05/01 01:28:37;;;;;;;11.02;6.50;;;;;;;;;;5054975;28;20051;-49
2022/05/01 01:33:51;;;;;;;8.65;6.47;;;;;;;;;;5055126;28;20146;-46
2022/05/01 01:36:20;;;;;;;8.48;6.90;;;;;;;;;;5036912;28;20029;-48
2022/05/01 01:38:45;;;;;;;8.18;6.75;;;;;;;;;;5054688;28;20495;-45
2022/05/01 01:41:13;;;;;;;9.25;6.57;;;;;;;;;;5054953;28;20029;-49
2022/05/01 01:43:42;;;;;;;8.38;6.38;;;;;;;;;;5054652;28;20025;-48
2022/05/01 01:46:07;;;;;;;8.30;6.93;;;;;;;;;;5054767;28;20036;-52
2022/05/01 01:48:33;;;;;;;10.13;6.78;;;;;;;;;;5054606;28;20116;-40
2022/05/01 01:51:03;;;;;;;9.80;6.57;;;;;;;;;;5054190;28;20503;-40
2022/05/01 01:53:30;;;;;;;8.20;6.60;;;;;;;;;;5054717;28;20120;-40
2022/05/01 01:55:57;;;;;;;8.98;6.50;;;;;;;;;;5054735;28;20103;-41
2022/05/01 01:58:23;;;;;;;10.70;6.28;;;;;;;;;;5054626;28;20028;-42
2022/05/01 02:00:49;;;;;;;8.98;5.80;;;;;;;;;;5054347;28;20072;-39
2022/05/01 02:03:15;;;;;;;10.05;6.18;;;;;;;;;;5054539;28;20056;-39
2022/05/01 02:05:41;;;;;;;9.70;6.75;;;;;;;;;;5054416;28;20029;-39
2022/05/01 02:08:07;;;;;;;8.02;6.18;;;;;;;;;;5036359;28;20528;-43
2022/05/01 02:10:33;;;;;;;9.75;6.28;;;;;;;;;;5054132;28;20052;-40
2022/05/01 02:13:01;;;;;;;12.38;6.45;;;;;;;;;;5054343;28;20067;-39
2022/05/01 02:15:30;;;;;;;14.70;6.25;;;;;;;;;;5054359;28;20029;-39
2022/05/01 02:17:58;;;;;;;8.43;6.53;;;;;;;;;;5053941;28;20465;-39
2022/05/01 02:20:25;;;;;;;9.43;6.20;;;;;;;;;;5054235;28;20468;-40
2022/05/01 02:22:50;;;;;;;10.25;6.72;;;;;;;;;;5054189;28;20025;-39
2022/05/01 02:25:16;;;;;;;8.63;6.53;;;;;;;;;;5053777;28;20385;-39
2022/05/01 02:27:41;;;;;;;11.05;6.95;;;;;;;;;;5053803;28;20029;-39
2022/05/01 02:30:08;;;;;;;7.68;6.00;;;;;;;;;;5053804;28;20029;-39
2022/05/01 02:32:42;;;;;;;9.15;6.15;;;;;;;;;;5053960;28;20072;-40
2022/05/01 02:35:09;;;;;;;14.45;6.93;;;;;;;;;;5054009;28;20122;-40
2022/05/01 02:37:35;;;;;;;9.48;6.82;;;;;;;;;;5053865;28;20437;-39
2022/05/01 02:40:01;;;;;;;9.98;6.97;;;;;;;;;;5053613;28;20025;-39
2022/05/01 02:42:26;;;;;;;8.38;6.53;;;;;;;;;;5053585;28;20056;-40
2022/05/01 02:44:52;;;;;;;10.13;6.95;;;;;;;;;;5053717;28;20044;-39
2022/05/01 02:47:17;;;;;;;11.05;6.90;;;;;;;;;;5053290;28;20108;-40
2022/05/01 02:49:43;;;;;;;9.50;6.75;;;;;;;;;;5053658;28;20025;-45
2022/05/01 02:52:09;;;;;;;10.75;6.55;;;;;;;;;;5053079;28;20397;-43
2022/05/01 02:54:35;;;;;;;11.43;7.15;;;;;;;;;;5053345;28;20104;-46
2022/05/01 02:57:01;;;;;;;11.13;7.20;;;;;;;;;;5053236;28;20027;-41
2022/05/01 02:59:27;;;;;;;10.52;7.38;;;;;;;;;;5053194;28;20108;-43
2022/05/01 03:01:54;;;;;;;8.77;7.07;;;;;;;;;;5053208;28;20112;-43
2022/05/01 03:04:23;;;;;;;13.27;7.78;;;;;;;;;;5053098;28;20032;-39
2022/05/01 03:06:49;;;;;;;13.15;8.75;;;;;;;;;;5052945;28;20063;-39
2022/05/01 03:09:14;;;;;;;11.85;7.35;;;;;;;;;;5053071;28;20021;-39
2022/05/01 03:11:40;;;;;;;9.25;6.40;;;;;;;;;;5053225;28;20052;-39
2022/05/01 03:14:09;;;;;;;8.32;6.50;;;;;;;;;;5052994;28;20473;-39
2022/05/01 03:16:35;;;;;;;9.43;6.37;;;;;;;;;;5052893;28;20017;-40
2022/05/01 03:24:28;;;;;;;9.23;6.60;;;;;;;;;;5052888;28;20031;-40
2022/05/01 03:26:54;;;;;;;8.02;6.38;;;;;;;;;;5052968;28;20112;-40
2022/05/01 03:29:19;;;;;;;8.82;6.38;;;;;;;;;;5052228;28;20040;-42
2022/05/01 03:31:48;;;;;;;7.28;5.78;;;;;;;;;;5052898;28;20021;-39
2022/05/01 03:34:14;;;;;;;7.75;5.78;;;;;;;;;;5052559;28;20021;-41
2022/05/01 03:36:40;;;;;;;12.07;6.55;;;;;;;;;;5052847;28;20033;-39
2022/05/01 03:39:06;;;;;;;9.60;7.40;;;;;;;;;;5052779;28;20048;-39
2022/05/01 03:41:32;;;;;;;7.72;6.20;;;;;;;;;;5052551;28;20024;-48
2022/05/01 03:43:58;;;;;;;10.57;6.22;;;;;;;;;;5052452;28;20044;-44
2022/05/01 03:46:23;;;;;;;10.88;6.70;;;;;;;;;;5052659;28;20049;-44
2022/05/01 03:48:52;;;;;;;10.05;6.72;;;;;;;;;;5052371;28;20043;-50
2022/05/01 03:51:18;;;;;;;9.50;6.93;;;;;;;;;;5052464;28;20427;-44
2022/05/01 03:53:45;;;;;;;10.15;6.85;;;;;;;;;;5052657;28;20059;-47
2022/05/01 03:56:11;;;;;;;9.32;6.10;;;;;;;;;;5052611;28;20385;-45
2022/05/01 03:58:37;;;;;;;7.63;6.03;;;;;;;;;;5052304;28;20036;-45
2022/05/01 04:01:02;;;;;;;7.78;5.75;;;;;;;;;;5052372;28;20032;-44
2022/05/01 04:03:28;;;;;;;8.10;6.03;;;;;;;;;;5052601;28;20025;-40
2022/05/01 04:05:54;;;;;;;9.38;6.43;;;;;;;;;;5052194;28;20477;-40
2022/05/01 04:08:21;;;;;;;11.10;5.78;;;;;;;;;;5052519;28;20056;-39
2022/05/01 04:10:46;;;;;;;9.48;6.10;;;;;;;;;;5052270;28;20538;-39
2022/05/01 04:13:13;;;;;;;9.18;6.38;;;;;;;;;;5052205;28;20152;-40
2022/05/01 04:15:39;;;;;;;8.65;5.90;;;;;;;;;;5052252;28;20384;-39
2022/05/01 04:18:06;;;;;;;8.00;5.95;;;;;;;;;;5052434;28;20102;-39
2022/05/01 04:20:37;;;;;;;12.98;6.25;;;;;;;;;;5034556;28;20453;-41
2022/05/01 04:23:04;;;;;;;7.25;4.82;;;;;;;;;;5052472;28;20028;-40
2022/05/01 04:25:30;;;;;;;9.13;5.85;;;;;;;;;;5052318;28;20025;-40
2022/05/01 04:28:01;;;;;;;6.60;4.95;;;;;;;;;;5052088;28;20033;-41
2022/05/01 04:30:27;;;;;;;9.38;6.05;;;;;;;;;;5052403;28;20461;-40
2022/05/01 04:32:57;;;;;;;7.18;5.60;;;;;;;;;;5052073;28;20040;-48
2022/05/01 04:35:22;;;;;;;7.45;4.95;;;;;;;;;;5052309;28;20021;-49
2022/05/01 04:37:53;;;;;;;9.48;6.03;;;;;;;;;;5051939;28;20031;-43
2022/05/01 04:40:19;;;;;;;;;;;;;;;;;;5053342;28;20025;-46
2022/05/01 04:42:45;;;;;;;6.93;5.15;;;;;;;;;;5055837;28;19954;-46
2022/05/01 04:45:13;;;;;;;7.72;5.78;;;;;;;;;;5055734;28;20542;-46
2022/05/01 04:47:39;;;;;;;8.98;6.07;;;;;;;;;;5055998;28;20055;-46
2022/05/01 04:50:05;;;;;;;5.85;3.70;;;;;;;;;;5055699;28;20025;-48
2022/05/01 04:52:31;;;;;;;8.93;4.82;;;;;;;;;;5055567;28;20037;-48
2022/05/01 04:54:56;;;;;;;8.27;5.10;;;;;;;;;;5055875;28;20048;-48
2022/05/01 04:57:21;;;;;;;5.57;4.00;;;;;;;;;;5055570;28;20028;-51
2022/05/01 04:59:48;;;;;;;6.15;4.30;;;;;;;;;;5055783;28;20052;-39
2022/05/01 05:02:14;;;;;;;5.75;3.53;;;;;;;;;;5055694;28;20093;-39
2022/05/01 05:04:40;;;;;;;7.22;4.18;;;;;;;;;;5055439;28;20512;-40
2022/05/01 05:07:06;;;;;;;4.13;3.70;;;;;;;;;;5055537;28;20166;-40
2022/05/01 05:12:15;;;;;;;4.60;3.38;;;;;;;;;;5055651;28;20032;-39
2022/05/01 05:14:41;;;;;;;3.30;3.00;;;;;;;;;;5055275;28;20021;-45
2022/05/01 05:17:06;;;;;;;4.95;3.45;;;;;;;;;;5055835;28;20037;-43
2022/05/01 05:19:39;;;;;;;5.95;3.40;;;;;;;;;;5055452;28;20036;-46
2022/05/01 05:22:04;;;;;;;3.55;2.70;;;;;;;;;;5055448;28;20032;-48
2022/05/01 05:24:30;;;;;;;2.63;2.42;;;;;;;;;;5055145;28;20020;-40
2022/05/01 05:26:57;;;;;;;6.60;3.30;;;;;;;;;;5037156;28;20025;-40
2022/05/01 05:29:22;;;;;;;3.67;3.13;;;;;;;;;;5055004;28;20111;-43
2022/05/01 05:31:48;;;;;;;4.22;3.45;;;;;;;;;;5055235;28;20481;-49
2022/05/01 05:34:13;;;;;;;3.45;3.15;;;;;;;;;;5055138;28;20078;-49
2022/05/01 05:36:39;;;;;;;4.07;2.92;;;;;;;;;;5020591;28;20354;-43
2022/05/01 05:39:04;;;;;;;2.70;2.38;;;;;;;;;;5054836;28;20017;-41
2022/05/01 05:41:30;;;;;;;2.92;2.42;;;;;;;;;;5054739;28;20376;-52
2022/05/01 05:43:55;;;;;;;7.18;2.58;;;;;;;;;;5054977;28;20025;-50
2022/05/01 05:46:21;;;;;;;3.55;2.47;;;;;;;;;;5054559;28;20087;-49
2022/05/01 05:48:46;;;;;;;5.97;2.60;;;;;;;;;;5054591;28;20029;-51
2022/05/01 05:51:11;;;;;;;3.55;2.38;;;;;;;;;;5054008;28;20035;-43
2022/05/01 05:53:37;;;;;;;3.55;2.83;;;;;;;;;;5054801;28;20036;-45
2022/05/01 05:56:03;;;;;;;3.33;2.10;;;;;;;;;;5054486;28;20086;-43
2022/05/01 05:58:28;;;;;;;6.70;2.28;;;;;;;;;;5054722;28;20032;-43
2022/05/01 06:00:54;;;;;;;3.13;2.03;;;;;;;;;;5054669;28;20029;-40
2022/05/01 06:03:19;;;;;;;4.20;2.55;;;;;;;;;;5054274;28;20021;-44
2022/05/01 06:05:47;;;;;;;3.03;2.15;;;;;;;;;;5054562;28;20064;-46
2022/05/01 06:08:13;;;;;;;2.17;1.98;;;;;;;;;;5054472;28;20063;-45
2022/05/01 06:10:39;;;;;;;2.58;2.17;;;;;;;;;;5054181;28;20021;-46
2022/05/01 06:13:04;;;;;;;4.07;2.15;;;;;;;;;;5054367;28;20163;-39
2022/05/01 06:15:30;;;;;;;2.67;2.47;;;;;;;;;;5054088;28;20496;-42
2022/05/01 06:17:56;;;;;;;2.15;1.95;;;;;;;;;;5054022;28;20021;-40
2022/05/01 06:20:21;;;;;;;2.13;1.70;;;;;;;;;;5053972;28;20025;-40
2022/05/01 06:22:50;;;;;;;2.40;2.20;;;;;;;;;;5054294;28;20032;-41
2022/05/01 06:25:16;;;;;;;2.22;1.83;;;;;;;;;;5054153;28;20025;-41
2022/05/01 06:27:42;;;;;;;2.47;2.00;;;;;;;;;;5053842;28;20500;-39
2022/05/01 06:30:10;;;;;;;3.88;1.90;;;;;;;;;;5053820;28;20029;-43
2022/05/01 06:32:35;;;;;;;2.97;1.90;;;;;;;;;;5054039;28;20025;-39
2022/05/01 06:35:03;;;;;;;2.10;1.90;;;;;;;;;;5053770;28;20025;-39
2022/05/01 06:37:29;;;;;;;2.15;1.75;;;;;;;;;;5035730;28;20029;-43
2022/05/01 06:39:54;;;;;;;2.35;2.08;;;;;;;;;;5053553;28;20519;-43
2022/05/01 06:42:20;;;;;;;2.63;2.05;;;;;;;;;;5053844;28;20025;-41
2022/05/01 06:44:45;;;;;;;2.28;2.00;;;;;;;;;;5053606;28;20075;-43
2022/05/01 06:47:13;;;;;;;2.20;1.92;;;;;;;;;;5035540;28;20029;-40
2022/05/01 06:49:38;;;;;;;2.53;2.28;;;;;;;;;;5053501;28;20021;-39
2022/05/01 06:52:04;;;;;;;2.00;1.80;;;;;;;;;;5053406;28;20044;-39
2022/05/01 06:54:30;;;;;;;2.28;2.08;;;;;;;;;;5053605;28;20036;-41
2022/05/01 06:56:55;;;;;;;2.15;1.95;;;;;;;;;;5053558;28;20017;-40
2022/05/01 06:59:20;;;;;;;2.05;1.85;;;;;;;;;;5053468;28;20028;-40
2022/05/01 07:01:47;;;;;;;4.00;2.00;;;;;;;;;;5053180;28;20405;-40
2022/05/01 07:04:13;;;;;;;3.65;2.10;;;;;;;;;;5052709;28;20025;-39
2022/05/01 07:06:40;;;;;;;2.00;1.80;;;;;;;;;;5052966;28;20036;-43
2022/05/01 07:09:05;;;;;;;1.73;1.63;;;;;;;;;;5053364;28;20021;-40
2022/05/01 07:11:31;;;;;;;36.38;2.72;;;;;;;;;;5053072;28;20028;-39
2022/05/01 07:13:56;;;;;;;2.50;2.30;;;;;;;;;;5053248;28;20040;-40
2022/05/01 07:16:22;;;;;;;2.15;1.95;;;;;;;;;;5053242;28;20032;-40
2022/05/01 07:18:48;;;;;;;3.03;2.45;;;;;;;;;;5053166;28;20031;-43
2022/05/01 07:21:13;;;;;;;3.95;2.08;;;;;;;;;;5052913;28;20473;-40
2022/05/01 07:23:39;;;;;;;3.42;2.08;;;;;;;;;;5034961;28;20052;-40
2022/05/01 07:26:04;;;;;;;1.90;1.80;;;;;;;;;;5052989;28;20481;-41
2022/05/01 07:28:30;;;;;;;3.13;2.58;;;;;;;;;;5052806;28;20051;-40
2022/05/01 07:30:55;;;;;;;2.25;2.05;;;;;;;;;;5052789;28;20116;-41
2022/05/01 07:33:22;;;;;;;3.42;2.65;;;;;;;;;;5052740;28;20029;-40
2022/05/01 07:35:47;;;;;;;2.45;2.25;;;;;;;;;;5052632;28;20033;-39
2022/05/01 07:38:13;;;;;;;2.10;1.90;;;;;;;;;;5052927;28;20074;-42
2022/05/01 07:40:39;;;;;;;4.57;2.83;;;;;;;;;;5052823;28;20033;-40
2022/05/01 07:43:05;;;;;;;2.72;2.50;;;;;;;;;;5052856;28;20047;-40
2022/05/01 07:45:30;;;;;;;2.30;1.95;;;;;;;;;;5052486;28;20096;-44
2022/05/01 07:47:58;;;;;;;6.43;2.50;;;;;;;;;;5050973;28;20477;-40
2022/05/01 07:50:24;;;;;;;3.35;2.63;;;;;;;;;;5051026;28;20021;-41
2022/05/01 07:52:49;;;;;;;3.95;3.00;;;;;;;;;;5052235;28;20051;-42
2022/05/01 07:55:15;;;;;;;3.25;2.55;;;;;;;;;;5052747;28;20044;-41
2022/05/01 07:57:41;;;;;;;3.28;2.75;;;;;;;;;;5052414;28;20025;-50
2022/05/01 08:00:07;;;;;;;3.25;2.92;;;;;;;;;;5051852;28;20063;-44
2022/05/01 08:05:23;;;;;;;2.40;2.20;;;;;;;;;;5052555;28;20031;-41
2022/05/01 08:07:52;;;;;;;3.83;3.00;;;;;;;;;;5036741;28;20024;-39
2022/05/01 08:10:17;;;;;;;2.17;2.00;;;;;;;;;;5052236;28;20036;-40
2022/05/01 08:12:43;;;;;;;2.72;2.53;;;;;;;;;;5044932;28;20025;-45
2022/05/01 08:15:09;;;;;;;2.97;2.45;;;;;;;;;;5054237;28;20060;-42
2022/05/01 08:17:34;;;;;;;3.28;2.97;;;;;;;;;;5056209;28;20029;-43
2022/05/01 08:22:44;;;;;;;5.05;3.35;;;;;;;;;;5059638;28;20059;-45
2022/05/01 08:25:09;;;;;;;1.88;1.77;;;;;;;;;;5058661;28;20064;-45
2022/05/01 08:27:35;;;;;;;4.15;2.60;;;;;;;;;;5065443;28;20059;-47
2022/05/01 08:30:00;;;;;;;3.00;2.50;;;;;;;;;;5047928;28;20028;-48
2022/05/01 08:32:26;;;;;;;2.78;2.58;;;;;;;;;;5046105;28;20029;-44
2022/05/01 08:34:52;;;;;;;2.70;2.50;;;;;;;;;;5050884;28;20082;-41
2022/05/01 08:37:18;;;;;;;3.28;2.95;;;;;;;;;;5075955;28;20047;-43
2022/05/01 08:39:43;;;;;;;4.05;3.28;;;;;;;;;;5075775;28;20033;-46
2022/05/01 08:42:09;;;;;;;2.58;2.38;;;;;;;;;;5075870;28;20468;-45
2022/05/01 08:44:36;;;;;;;2.55;2.13;;;;;;;;;;5075984;28;20025;-50
2022/05/01 08:47:11;;;;;;;2.40;2.20;;;;;;;;;;5075548;28;20024;-46
2022/05/01 08:49:37;;;;;;;2.40;2.10;;;;;;;;;;5057731;28;20075;-40
2022/05/01 08:52:07;;;;;;;1.90;1.63;;;;;;;;;;5075430;28;20433;-40
2022/05/01 08:54:32;;;;;;;2.33;2.13;;;;;;;;;;5057523;28;20029;-42
2022/05/01 08:56:59;;;;;;;3.15;2.17;;;;;;;;;;5075675;28;20028;-51
2022/05/01 08:59:25;;;;;;;2.03;1.92;;;;;;;;;;5075556;28;20475;-41
2022/05/01 09:01:52;;;;;;;4.40;1.73;;;;;;;;;;5075792;28;20032;-43
2022/05/01 09:04:18;;;;;;;2.00;1.85;;;;;;;;;;5075453;28;20062;-44
2022/05/01 09:06:44;;;;;;;3.22;2.92;;;;;;;;;;5074099;28;20037;-44
2022/05/01 09:09:17;;;;;;;2.95;2.00;;;;;;;;;;5075584;28;20028;-50
2022/05/01 09:14:28;;;;;;;1.90;1.73;;;;;;;;;;5075420;28;20082;-50
2022/05/01 09:17:16;;;;;;;2.28;1.85;;;;;;;;;;5074956;28;20036;-39
2022/05/01 09:19:53;;;;;;;2.10;2.00;;;;;;;;;;5074827;28;20107;-37
2022/05/01 09:22:20;;;;;;;1.55;1.45;;;;;;;;;;5075007;28;20471;-38
2022/05/01 09:24:52;;;;;;;2.45;1.70;;;;;;;;;;5075165;28;20491;-39
2022/05/01 09:27:34;;;;;;;2.30;2.08;;;;;;;;;;5074451;28;20047;-38
2022/05/01 09:30:11;;;;;;;2.67;2.40;;;;;;;;;;5074815;28;20021;-38
2022/05/01 09:32:38;;;;;;;2.60;2.40;;;;;;;;;;5074946;28;20035;-37
2022/05/01 09:35:16;;;;;;;2.25;2.05;;;;;;;;;;5075160;28;20099;-39
2022/05/01 09:37:42;;;;;;;3.03;2.72;;;;;;;;;;5073224;28;20038;-37
2022/05/01 09:40:08;;;;;;;3.70;2.95;;;;;;;;;;5075101;28;20487;-37
2022/05/01 09:42:35;;;;;;;4.47;2.30;;;;;;;;;;5074717;28;20518;-37
2022/05/01 09:45:14;;;;;;;2.70;2.50;;;;;;;;;;5075029;28;20074;-37
2022/05/01 09:47:45;;;;;;;2.20;2.03;;;;;;;;;;5074594;28;20025;-38
2022/05/01 09:50:13;;;;;;;2.40;2.20;;;;;;;;;;5074887;28;20102;-38
2022/05/01 09:52:58;;;;;;;1.85;1.75;;;;;;;;;;5074550;28;20078;-38
2022/05/01 09:55:25;;;;;;;2.60;2.40;;;;;;;;;;5074815;28;20052;-39
2022/05/01 09:58:11;;;;;;;2.60;2.30;;;;;;;;;;5074548;28;20021;-39
2022/05/01 10:00:42;;;;;;;5.65;2.40;;;;;;;;;;5074732;28;20078;-42
2022/05/01 10:03:28;;;;;;;2.55;1.90;;;;;;;;;;5074369;28;20023;-42
2022/05/01 10:05:56;;;;;;;6.35;1.63;;;;;;;;;;5074597;28;20407;-40
2022/05/01 10:08:22;;;;;;;3.50;2.17;;;;;;;;;;5074569;28;20028;-41
2022/05/01 10:10:51;;;;;;;2.67;2.10;;;;;;;;;;5074206;28;20029;-40
2022/05/01 10:13:17;;;;;;;3.22;1.95;;;;;;;;;;5074470;28;20078;-39
2022/05/01 10:15:42;;;;;;;1.52;1.42;;;;;;;;;;5074382;28;20102;-37
2022/05/01 10:18:08;;;;;;;1.92;1.83;;;;;;;;;;5074115;28;20469;-37
2022/05/01 10:20:34;;;;;;;2.20;1.70;;;;;;;;;;5074264;28;20029;-38
2022/05/01 10:23:03;;;;;;;2.30;2.03;;;;;;;;;;5074284;28;20074;-39
2022/05/01 10:25:32;;;;;;;1.80;1.70;;;;;;;;;;5074118;28;20033;-38
2022/05/01 10:28:31;;;;;;;1.60;1.50;;;;;;;;;;5073913;28;20024;-39
2022/05/01 10:34:43;;;;;;;1.52;1.42;;;;;;;;;;5073879;28;20039;-39
2022/05/01 10:37:27;;;;;;;1.90;1.70;;;;;;;;;;5073736;28;20025;-38
2022/05/01 10:39:53;;;;;;;1.73;1.48;;;;;;;;;;5073164;28;20427;-38
2022/05/01 10:42:46;;;;;;;2.58;1.70;;;;;;;;;;5073567;28;20025;-39
2022/05/01 10:45:20;;;;;;;3.42;1.70;;;;;;;;;;5070450;28;20036;-38
2022/05/01 10:47:47;;;;;;;2.70;2.05;;;;;;;;;;5074011;28;20067;-39
2022/05/01 10:50:20;;;;;;;1.40;1.30;;;;;;;;;;5073744;28;20444;-39
2022/05/01 10:53:05;;;;;;;1.85;1.75;;;;;;;;;;5073272;28;20507;-39
2022/05/01 10:55:52;;;;;;;1.92;1.50;;;;;;;;;;5073613;28;20068;-40
2022/05/01 10:58:22;;;;;;;1.60;1.50;;;;;;;;;;5073346;28;20472;-38
2022/05/01 11:00:48;;;;;;;1.58;1.48;;;;;;;;;;5073009;28;20033;-37
2022/05/01 11:03:29;;;;;;;6.88;1.75;;;;;;;;;;5073222;28;20029;-39
2022/05/01 11:06:04;;;;;;;1.55;1.38;;;;;;;;;;5073159;28;20024;-38
2022/05/01 11:08:38;;;;;;;2.70;1.13;;;;;;;;;;5073360;28;20379;-39
2022/05/01 11:11:10;;;;;;;1.55;1.45;;;;;;;;;;5073255;28;20020;-38
2022/05/01 11:13:37;;;;;;;1.60;1.50;;;;;;;;;;5073287;28;20021;-39
2022/05/01 11:16:04;;;;;;;2.10;1.40;;;;;;;;;;5073243;28;20026;-39
2022/05/01 11:18:34;;;;;;;1.67;1.42;;;;;;;;;;5072865;28;20031;-38
2022/05/01 11:21:21;;;;;;;1.40;1.30;;;;;;;;;;5072972;28;20050;-39
2022/05/01 11:23:57;;;;;;;1.30;1.20;;;;;;;;;;5073087;28;20032;-39
2022/05/01 11:26:23;;;;;;;1.40;1.23;;;;;;;;;;5072782;28;20457;-38
2022/05/01 11:28:52;;;;;;;1.30;1.20;;;;;;;;;;5073063;28;20020;-38
2022/05/01 11:31:36;;;;;;;1.75;1.65;;;;;;;;;;5072714;28;20029;-38
2022/05/01 11:34:25;;;;;;;2.25;1.90;;;;;;;;;;5072637;28;20112;-39
2022/05/01 11:37:06;;;;;;;0.90;0.90;;;;;;;;;;5061772;28;20060;-38
2022/05/01 11:39:50;;;;;;;2.75;1.60;;;;;;;;;;5072935;28;20029;-39
2022/05/01 11:42:32;;;;;;;1.70;1.60;;;;;;;;;;5072606;28;20036;-40
2022/05/01 11:45:01;;;;;;;1.27;1.17;;;;;;;;;;5072608;28;20012;-39
2022/05/01 11:47:28;;;;;;;2.97;1.55;;;;;;;;;;5073037;28;20166;-39
2022/05/01 11:49:53;;;;;;;1.70;1.60;;;;;;;;;;5072450;28;20036;-38
2022/05/01 11:52:22;;;;;;;1.65;1.55;;;;;;;;;;5072450;28;20040;-38
2022/05/01 11:54:57;;;;;;;1.83;1.20;;;;;;;;;;5072724;28;20112;-39
2022/05/01 12:03:02;;;;;;;1.07;1.03;;;;;;;;;;5072802;28;20032;-38
2022/05/01 12:05:47;;;;;;;2.15;1.70;;;;;;;;;;5072619;28;20028;-39
2022/05/01 12:08:14;;;;;;;2.28;1.65;;;;;;;;;;5072415;28;20476;-40
2022/05/01 12:10:41;;;;;;;2.13;1.25;;;;;;;;;;5072311;28;20033;-39
2022/05/01 12:13:23;;;;;;;1.58;1.48;;;;;;;;;;5072321;28;20551;-37
2022/05/01 12:15:51;;;;;;;4.28;1.77;;;;;;;;;;5072185;28;20113;-37
2022/05/01 12:18:18;;;;;;;1.60;1.50;;;;;;;;;;5072517;28;20115;-37
2022/05/01 12:20:44;;;;;;;2.03;1.92;;;;;;;;;;5072500;28;20028;-37
2022/05/01 12:23:14;;;;;;;3.03;1.60;;;;;;;;;;5072285;28;20051;-37
2022/05/01 12:25:41;;;;;;;1.70;1.60;;;;;;;;;;5072398;28;20123;-39
2022/05/01 12:28:11;;;;;;;1.40;1.30;;;;;;;;;;5072120;28;20020;-39
2022/05/01 12:30:38;;;;;;;0.80;0.80;;;;;;;;;;5072260;28;20025;-38
2022/05/01 12:33:03;;;;;;;2.05;1.73;;;;;;;;;;5072348;28;20392;-39
2022/05/01 12:35:50;;;;;;;2.90;1.40;;;;;;;;;;5072077;28;20021;-38
2022/05/01 12:38:16;;;;;;;1.10;1.00;;;;;;;;;;5072349;28;20025;-38
2022/05/01 12:46:27;;;;;;;1.60;1.50;;;;;;;;;;5072266;28;20024;-37
2022/05/01 12:48:54;;;;;;;1.63;1.50;;;;;;;;;;5071964;28;20021;-37
2022/05/01 12:51:19;;;;;;;1.20;1.10;;;;;;;;;;5071975;28;20016;-37
2022/05/01 12:53:45;;;;;;;3.05;1.60;;;;;;;;;;5072240;28;20380;-37
2022/05/01 12:56:20;;;;;;;3.95;1.90;;;;;;;;;;5072174;28;20508;-37
2022/05/01 12:58:47;;;;;;;1.48;1.38;;;;;;;;;;5072147;28;20028;-37
2022/05/01 13:01:24;;;;;;;1.42;1.20;;;;;;;;;;5072608;28;20020;-37
2022/05/01 13:03:50;;;;;;;5.25;1.60;;;;;;;;;;5075503;28;20042;-37
2022/05/01 13:06:17;;;;;;;4.10;1.02;;;;;;;;;;5075446;28;20495;-37
2022/05/01 13:08:48;;;;;;;3.40;1.77;;;;;;;;;;5075741;28;20020;-40
2022/05/01 13:11:28;;;;;;;1.50;1.40;;;;;;;;;;5075631;28;20086;-41
2022/05/01 13:13:59;;;;;;;;;;;;;;;;;;5075820;28;20376;-37
2022/05/01 13:16:31;;;;;;;1.75;1.17;;;;;;;;;;5075561;28;20014;-37
2022/05/01 13:19:11;;;;;;;2.15;1.33;;;;;;;;;;5075542;28;20027;-39
2022/05/01 13:21:56;;;;;;;1.40;1.13;;;;;;;;;;5075542;28;20051;-38
2022/05/01 13:24:26;;;;;;;1.05;1.02;;;;;;;;;;5074677;28;20036;-37
2022/05/01 13:26:51;;;;;;;4.82;2.75;;;;;;;;;;5075290;28;20029;-37
2022/05/01 13:29:17;;;;;;;3.78;2.00;;;;;;;;;;5075322;28;20044;-37
2022/05/01 13:31:46;;;;;;;1.98;1.88;;;;;;;;;;5075277;28;20086;-40
2022/05/01 13:34:11;;;;;;;1.80;1.70;;;;;;;;;;5074987;28;20021;-40
2022/05/01 13:36:40;;;;;;;1.58;1.48;;;;;;;;;;5057134;28;20086;-40
2022/05/01 13:39:07;;;;;;;5.07;1.98;;;;;;;;;;5057546;28;20028;-40
2022/05/01 13:44:44;;;;;;;2.22;2.03;;;;;;;;;;5075112;28;20085;-41
2022/05/01 13:47:10;;;;;;;1.67;1.58;;;;;;;;;;5074494;28;20035;-37
2022/05/01 13:49:36;;;;;;;2.30;2.00;;;;;;;;;;5074650;28;20046;-39
2022/05/01 13:52:07;;;;;;;2.15;1.95;;;;;;;;;;5074436;28;20063;-39
2022/05/01 13:54:36;;;;;;;4.75;2.17;;;;;;;;;;5074856;28;20036;-40
2022/05/01 13:57:02;;;;;;;2.65;1.98;;;;;;;;;;5074511;28;20350;-41
2022/05/01 13:59:28;;;;;;;1.85;1.73;;;;;;;;;;5074774;28;20103;-39
2022/05/01 14:01:56;;;;;;;2.65;2.30;;;;;;;;;;5074515;28;20533;-37
2022/05/01 14:04:22;;;;;;;3.47;1.92;;;;;;;;;;5074418;28;20476;-37
2022/05/01 14:06:51;;;;;;;8.95;2.28;;;;;;;;;;5074263;28;20033;-38
2022/05/01 14:09:20;;;;;;;6.15;1.92;;;;;;;;;;5074336;28;20025;-37
2022/05/01 14:11:56;;;;;;;4.40;2.28;;;;;;;;;;5074200;28;20035;-37
2022/05/01 14:14:22;;;;;;;2.13;1.77;;;;;;;;;;5074275;28;20024;-37
2022/05/01 14:16:48;;;;;;;1.30;1.20;;;;;;;;;;5074382;28;20425;-37
2022/05/01 14:19:31;;;;;;;1.65;1.55;;;;;;;;;;5074126;28;20103;-38
2022/05/01 14:21:59;;;;;;;1.60;1.50;;;;;;;;;;5074363;28;20028;-37
2022/05/01 14:24:25;;;;;;;4.25;2.70;;;;;;;;;;5074336;28;20032;-37
2022/05/01 14:26:51;;;;;;;2.53;1.98;;;;;;;;;;5073916;28;20032;-37
2022/05/01 14:29:17;;;;;;;2.08;1.73;;;;;;;;;;5074167;28;20033;-37
2022/05/01 14:31:46;;;;;;;2.53;2.05;;;;;;;;;;5074161;28;20555;-37
2022/05/01 14:34:23;;;;;;;3.83;1.63;;;;;;;;;;5074098;28;20447;-37
2022/05/01 14:36:53;;;;;;;2.20;1.98;;;;;;;;;;5074093;28;20029;-37
2022/05/01 14:39:21;;;;;;;2.90;2.03;;;;;;;;;;5073761;28;20468;-37
2022/05/01 14:41:49;;;;;;;2.72;1.95;;;;;;;;;;5073636;28;20480;-38
2022/05/01 14:44:21;;;;;;;2.47;2.10;;;;;;;;;;5073873;28;20063;-37
2022/05/01 14:47:06;;;;;;;2.88;2.67;;;;;;;;;;5073800;28;20028;-41
2022/05/01 14:49:38;;;;;;;2.70;2.40;;;;;;;;;;5073467;28;20074;-41
2022/05/01 14:52:05;;;;;;;6.95;2.95;;;;;;;;;;5073384;28;20048;-39
2022/05/01 14:54:34;;;;;;;2.10;1.85;;;;;;;;;;5073377;28;20017;-40
2022/05/01 14:57:02;;;;;;;1.58;1.48;;;;;;;;;;5073588;28;20021;-39
2022/05/01 15:07:53;;;;;;;4.72;2.50;;;;;;;;;;5073178;28;20146;-42
2022/05/01 15:10:21;;;;;;;1.73;1.63;;;;;;;;;;5073117;28;20028;-40
2022/05/01 15:12:47;;;;;;;2.25;1.50;;;;;;;;;;5073356;28;20056;-40
2022/05/01 15:15:12;;;;;;;1.42;1.33;;;;;;;;;;5073063;28;20098;-40
2022/05/01 15:17:39;;;;;;;2.75;1.63;;;;;;;;;;5073007;28;20029;-39
2022/05/01 15:20:20;;;;;;;1.23;1.17;;;;;;;;;;5073216;28;20465;-41
2022/05/01 15:23:04;;;;;;;1.65;1.55;;;;;;;;;;5072967;28;20509;-41
2022/05/01 15:25:36;;;;;;;2.67;1.73;;;;;;;;;;5072318;28;20020;-40
2022/05/01 15:28:11;;;;;;;3.25;2.22;;;;;;;;;;5073121;28;20430;-39
2022/05/01 15:30:46;;;;;;;1.60;1.38;;;;;;;;;;5073155;28;20031;-42
2022/05/01 15:35:53;;;;;;;1.90;1.58;;;;;;;;;;5073049;28;20028;-39
2022/05/01 15:38:23;;;;;;;1.30;1.20;;;;;;;;;;5072953;28;20039;-40
2022/05/01 15:40:52;;;;;;;2.33;1.60;;;;;;;;;;5072652;28;20020;-41